sensor_id;sensor_type;location;lat;lon;timestamp;pressure;altitude;pressure_sealevel;temperature;humidity
54924;BME280;40825;52.270;20.984;2023-05-12T00:00:37;101251.84;;;11.02;45.41
54924;BME280;40825;52.270;20.984;2023-05-12T00:03:11;101245.84;;;11.00;45.33
54924;BME280;40825;52.270;20.984;2023-05-12T00:05:37;101250.02;;;10.99;45.40
54924;BME280;40825;52.270;20.984;2023-05-12T00:08:02;101250.65;;;10.98;46.01
54924;BME280;40825;52.270;20.984;2023-05-12T00:10:28;101246.92;;;10.95;45.37
54924;BME280;40825;52.270;20.984;2023-05-12T00:12:54;101249.13;;;10.94;44.96
54924;BME280;40825;52.270;20.984;2023-05-12T00:15:20;101250.10;;;10.96;45.67
54924;BME280;40825;52.270;20.984;2023-05-12T00:17:45;101252.02;;;10.96;45.70
54924;BME280;40825;52.270;20.984;2023-05-12T00:20:11;101253.94;;;10.94;45.45
54924;BME280;40825;52.270;20.984;2023-05-12T00:22:38;101252.48;;;10.95;45.55
54924;BME280;40825;52.270;20.984;2023-05-12T00:25:06;101254.79;;;10.95;45.64
54924;BME280;40825;52.270;20.984;2023-05-12T00:27:31;101253.35;;;10.96;45.41
54924;BME280;40825;52.270;20.984;2023-05-12T00:29:58;101253.55;;;10.99;44.89
54924;BME280;40825;52.270;20.984;2023-05-12T00:32:25;101254.47;;;11.03;44.84
54924;BME280;40825;52.270;20.984;2023-05-12T00:34:51;101251.58;;;11.06;44.69
54924;BME280;40825;52.270;20.984;2023-05-12T00:37:19;101257.64;;;11.08;44.43
54924;BME280;40825;52.270;20.984;2023-05-12T00:39:44;101254.96;;;11.11;44.41
54924;BME280;40825;52.270;20.984;2023-05-12T00:42:11;101255.77;;;11.13;44.32
54924;BME280;40825;52.270;20.984;2023-05-12T00:44:36;101258.96;;;11.15;44.26
54924;BME280;40825;52.270;20.984;2023-05-12T00:47:03;101260.27;;;11.16;44.30
54924;BME280;40825;52.270;20.984;2023-05-12T00:49:30;101259.01;;;11.16;44.25
54924;BME280;40825;52.270;20.984;2023-05-12T00:51:57;101260.06;;;11.17;44.31
54924;BME280;40825;52.270;20.984;2023-05-12T00:54:24;101265.79;;;11.16;44.26
54924;BME280;40825;52.270;20.984;2023-05-12T00:56:50;101268.65;;;11.15;44.29
54924;BME280;40825;52.270;20.984;2023-05-12T00:59:15;101270.99;;;11.12;44.29
54924;BME280;40825;52.270;20.984;2023-05-12T01:01:41;101271.46;;;11.11;44.29
54924;BME280;40825;52.270;20.984;2023-05-12T01:04:07;101266.66;;;11.10;44.23
54924;BME280;40825;52.270;20.984;2023-05-12T01:08:59;101274.27;;;11.06;44.43
54924;BME280;40825;52.270;20.984;2023-05-12T01:11:25;101272.01;;;11.04;44.43
54924;BME280;40825;52.270;20.984;2023-05-12T01:13:51;101271.98;;;11.02;44.34
54924;BME280;40825;52.270;20.984;2023-05-12T01:16:22;101277.86;;;11.00;44.48
54924;BME280;40825;52.270;20.984;2023-05-12T01:18:50;101277.25;;;10.97;44.32
54924;BME280;40825;52.270;20.984;2023-05-12T01:21:18;101278.70;;;10.96;44.40
54924;BME280;40825;52.270;20.984;2023-05-12T01:23:50;101279.08;;;10.94;44.38
54924;BME280;40825;52.270;20.984;2023-05-12T01:26:17;101280.31;;;10.91;44.47
54924;BME280;40825;52.270;20.984;2023-05-12T01:28:43;101281.33;;;10.88;44.55
54924;BME280;40825;52.270;20.984;2023-05-12T01:31:10;101284.28;;;10.86;44.73
54924;BME280;40825;52.270;20.984;2023-05-12T01:33:36;101282.08;;;10.83;44.65
54924;BME280;40825;52.270;20.984;2023-05-12T01:36:03;101283.63;;;10.80;44.82
54924;BME280;40825;52.270;20.984;2023-05-12T01:38:28;101282.86;;;10.79;44.78
54924;BME280;40825;52.270;20.984;2023-05-12T01:40:54;101281.13;;;10.77;44.79
54924;BME280;40825;52.270;20.984;2023-05-12T01:43:19;101281.60;;;10.75;44.79
54924;BME280;40825;52.270;20.984;2023-05-12T01:45:44;101281.84;;;10.72;45.00
54924;BME280;40825;52.270;20.984;2023-05-12T01:48:10;101283.95;;;10.69;45.22
54924;BME280;40825;52.270;20.984;2023-05-12T01:50:35;101287.96;;;10.67;45.03
54924;BME280;40825;52.270;20.984;2023-05-12T01:53:01;101286.48;;;10.66;45.07
54924;BME280;40825;52.270;20.984;2023-05-12T01:55:26;101284.69;;;10.64;44.98
54924;BME280;40825;52.270;20.984;2023-05-12T01:57:52;101287.63;;;10.62;45.32
54924;BME280;40825;52.270;20.984;2023-05-12T02:00:17;101286.54;;;10.58;45.30
54924;BME280;40825;52.270;20.984;2023-05-12T02:02:43;101289.80;;;10.56;45.36
54924;BME280;40825;52.270;20.984;2023-05-12T02:05:08;101287.41;;;10.54;45.46
54924;BME280;40825;52.270;20.984;2023-05-12T02:07:34;101287.35;;;10.51;45.54
54924;BME280;40825;52.270;20.984;2023-05-12T02:09:59;101284.73;;;10.49;45.53
54924;BME280;40825;52.270;20.984;2023-05-12T02:12:25;101284.31;;;10.48;45.49
54924;BME280;40825;52.270;20.984;2023-05-12T02:14:50;101282.89;;;10.44;45.73
54924;BME280;40825;52.270;20.984;2023-05-12T02:17:16;101280.43;;;10.42;45.51
54924;BME280;40825;52.270;20.984;2023-05-12T02:19:41;101282.38;;;10.41;45.72
54924;BME280;40825;52.270;20.984;2023-05-12T02:22:07;101287.05;;;10.39;45.81
54924;BME280;40825;52.270;20.984;2023-05-12T02:24:33;101288.05;;;10.36;45.83
54924;BME280;40825;52.270;20.984;2023-05-12T02:26:58;101286.48;;;10.34;45.82
54924;BME280;40825;52.270;20.984;2023-05-12T02:29:23;101292.56;;;10.32;45.65
54924;BME280;40825;52.270;20.984;2023-05-12T02:31:50;101292.86;;;10.31;46.11
54924;BME280;40825;52.270;20.984;2023-05-12T02:34:15;101297.54;;;10.29;46.10
54924;BME280;40825;52.270;20.984;2023-05-12T02:36:42;101302.77;;;10.25;46.41
54924;BME280;40825;52.270;20.984;2023-05-12T02:39:07;101303.20;;;10.23;46.40
54924;BME280;40825;52.270;20.984;2023-05-12T02:41:33;101307.09;;;10.21;46.34
54924;BME280;40825;52.270;20.984;2023-05-12T02:43:58;101306.17;;;10.20;46.31
54924;BME280;40825;52.270;20.984;2023-05-12T02:46:24;101305.15;;;10.20;45.89
54924;BME280;40825;52.270;20.984;2023-05-12T02:48:49;101309.20;;;10.20;46.17
54924;BME280;40825;52.270;20.984;2023-05-12T02:51:15;101311.80;;;10.17;46.33
54924;BME280;40825;52.270;20.984;2023-05-12T02:53:40;101307.48;;;10.12;46.49
54924;BME280;40825;52.270;20.984;2023-05-12T02:56:06;101313.71;;;10.11;46.74
54924;BME280;40825;52.270;20.984;2023-05-12T02:58:33;101316.14;;;10.10;46.33
54924;BME280;40825;52.270;20.984;2023-05-12T03:00:58;101320.80;;;10.09;46.28
54924;BME280;40825;52.270;20.984;2023-05-12T03:03:24;101315.66;;;10.09;46.69
54924;BME280;40825;52.270;20.984;2023-05-12T03:05:49;101318.70;;;10.08;46.60
54924;BME280;40825;52.270;20.984;2023-05-12T03:08:16;101318.33;;;10.07;46.32
54924;BME280;40825;52.270;20.984;2023-05-12T03:10:42;101318.92;;;10.07;46.54
54924;BME280;40825;52.270;20.984;2023-05-12T03:13:08;101317.30;;;10.06;46.38
54924;BME280;40825;52.270;20.984;2023-05-12T03:15:34;101313.86;;;10.06;46.31
54924;BME280;40825;52.270;20.984;2023-05-12T03:18:01;101314.53;;;10.06;46.25
54924;BME280;40825;52.270;20.984;2023-05-12T03:20:27;101317.14;;;10.07;46.51
54924;BME280;40825;52.270;20.984;2023-05-12T03:22:52;101316.17;;;10.06;46.39
54924;BME280;40825;52.270;20.984;2023-05-12T03:25:18;101317.50;;;10.05;46.79
54924;BME280;40825;52.270;20.984;2023-05-12T03:27:44;101317.13;;;10.03;47.15
54924;BME280;40825;52.270;20.984;2023-05-12T03:30:10;101319.05;;;10.04;47.06
54924;BME280;40825;52.270;20.984;2023-05-12T03:32:36;101324.92;;;10.04;47.20
54924;BME280;40825;52.270;20.984;2023-05-12T03:35:06;101324.56;;;10.04;46.96
54924;BME280;40825;52.270;20.984;2023-05-12T03:37:32;101324.32;;;10.04;47.43
54924;BME280;40825;52.270;20.984;2023-05-12T03:39:58;101325.20;;;10.05;47.19
54924;BME280;40825;52.270;20.984;2023-05-12T03:42:24;101327.14;;;10.07;48.25
54924;BME280;40825;52.270;20.984;2023-05-12T03:44:50;101326.64;;;10.06;47.83
54924;BME280;40825;52.270;20.984;2023-05-12T03:47:16;101328.96;;;10.08;47.85
54924;BME280;40825;52.270;20.984;2023-05-12T03:49:41;101329.38;;;10.11;47.64
54924;BME280;40825;52.270;20.984;2023-05-12T03:52:07;101328.65;;;10.14;48.03
54924;BME280;40825;52.270;20.984;2023-05-12T03:54:32;101333.42;;;10.18;47.81
54924;BME280;40825;52.270;20.984;2023-05-12T03:56:59;101335.52;;;10.22;47.66
54924;BME280;40825;52.270;20.984;2023-05-12T03:59:24;101336.49;;;10.26;48.25
54924;BME280;40825;52.270;20.984;2023-05-12T04:01:51;101341.00;;;10.32;48.11
54924;BME280;40825;52.270;20.984;2023-05-12T04:04:17;101341.98;;;10.51;47.98
54924;BME280;40825;52.270;20.984;2023-05-12T04:06:43;101341.67;;;10.62;47.67
54924;BME280;40825;52.270;20.984;2023-05-12T04:09:09;101338.52;;;10.73;47.46
54924;BME280;40825;52.270;20.984;2023-05-12T04:11:34;101339.74;;;10.83;47.58
54924;BME280;40825;52.270;20.984;2023-05-12T04:14:01;101342.63;;;10.91;47.33
54924;BME280;40825;52.270;20.984;2023-05-12T04:16:27;101347.23;;;10.98;47.24
54924;BME280;40825;52.270;20.984;2023-05-12T04:18:52;101347.28;;;11.04;47.07
54924;BME280;40825;52.270;20.984;2023-05-12T04:21:18;101349.06;;;11.12;47.04
54924;BME280;40825;52.270;20.984;2023-05-12T04:23:43;101348.33;;;11.25;46.89
54924;BME280;40825;52.270;20.984;2023-05-12T04:26:09;101355.02;;;11.36;46.87
54924;BME280;40825;52.270;20.984;2023-05-12T04:28:34;101351.99;;;11.47;46.43
54924;BME280;40825;52.270;20.984;2023-05-12T04:31:02;101356.39;;;11.68;45.74
54924;BME280;40825;52.270;20.984;2023-05-12T04:33:30;101353.16;;;11.97;44.87
54924;BME280;40825;52.270;20.984;2023-05-12T04:35:56;101353.56;;;12.34;44.45
54924;BME280;40825;52.270;20.984;2023-05-12T04:38:22;101352.69;;;12.68;43.72
54924;BME280;40825;52.270;20.984;2023-05-12T04:40:47;101354.91;;;13.11;43.11
54924;BME280;40825;52.270;20.984;2023-05-12T04:43:13;101359.48;;;13.52;42.74
54924;BME280;40825;52.270;20.984;2023-05-12T04:45:38;101362.23;;;13.85;42.42
54924;BME280;40825;52.270;20.984;2023-05-12T04:48:04;101358.49;;;14.06;41.69
54924;BME280;40825;52.270;20.984;2023-05-12T04:50:30;101364.64;;;14.17;40.63
54924;BME280;40825;52.270;20.984;2023-05-12T04:52:55;101363.04;;;14.27;40.76
54924;BME280;40825;52.270;20.984;2023-05-12T04:55:21;101362.82;;;14.39;41.21
54924;BME280;40825;52.270;20.984;2023-05-12T04:57:46;101363.95;;;14.51;40.68
54924;BME280;40825;52.270;20.984;2023-05-12T05:00:12;101367.58;;;14.58;40.91
54924;BME280;40825;52.270;20.984;2023-05-12T05:02:37;101371.95;;;14.67;41.26
54924;BME280;40825;52.270;20.984;2023-05-12T05:05:03;101366.40;;;14.66;40.62
54924;BME280;40825;52.270;20.984;2023-05-12T05:07:29;101366.08;;;14.62;40.96
54924;BME280;40825;52.270;20.984;2023-05-12T05:09:54;101369.25;;;14.55;40.94
54924;BME280;40825;52.270;20.984;2023-05-12T05:12:20;101372.35;;;14.47;40.53
54924;BME280;40825;52.270;20.984;2023-05-12T05:14:45;101373.45;;;14.37;40.66
54924;BME280;40825;52.270;20.984;2023-05-12T05:17:11;101376.38;;;14.30;40.87
54924;BME280;40825;52.270;20.984;2023-05-12T05:19:37;101380.46;;;14.21;40.66
54924;BME280;40825;52.270;20.984;2023-05-12T05:22:03;101379.54;;;14.12;41.23
54924;BME280;40825;52.270;20.984;2023-05-12T05:24:29;101381.58;;;14.10;41.03
54924;BME280;40825;52.270;20.984;2023-05-12T05:26:54;101385.41;;;14.00;40.81
54924;BME280;40825;52.270;20.984;2023-05-12T05:29:20;101383.90;;;13.91;40.80
54924;BME280;40825;52.270;20.984;2023-05-12T05:31:45;101387.49;;;13.88;41.24
54924;BME280;40825;52.270;20.984;2023-05-12T05:34:11;101384.70;;;13.90;41.74
54924;BME280;40825;52.270;20.984;2023-05-12T05:36:36;101389.25;;;13.97;41.71
54924;BME280;40825;52.270;20.984;2023-05-12T05:39:02;101389.39;;;14.01;41.54
54924;BME280;40825;52.270;20.984;2023-05-12T05:41:27;101390.62;;;14.05;41.29
54924;BME280;40825;52.270;20.984;2023-05-12T05:43:53;101391.11;;;14.08;41.36
54924;BME280;40825;52.270;20.984;2023-05-12T05:46:18;101390.38;;;14.10;41.31
54924;BME280;40825;52.270;20.984;2023-05-12T05:48:43;101392.45;;;14.10;41.17
54924;BME280;40825;52.270;20.984;2023-05-12T05:51:09;101394.11;;;14.16;41.32
54924;BME280;40825;52.270;20.984;2023-05-12T05:53:36;101396.14;;;14.24;41.51
54924;BME280;40825;52.270;20.984;2023-05-12T05:56:01;101398.69;;;14.34;41.49
54924;BME280;40825;52.270;20.984;2023-05-12T05:58:27;101398.55;;;14.45;41.38
54924;BME280;40825;52.270;20.984;2023-05-12T06:00:52;101398.67;;;14.60;41.11
54924;BME280;40825;52.270;20.984;2023-05-12T06:03:18;101398.02;;;14.73;40.86
54924;BME280;40825;52.270;20.984;2023-05-12T06:05:43;101399.75;;;14.92;41.08
54924;BME280;40825;52.270;20.984;2023-05-12T06:08:09;101400.83;;;15.09;40.38
54924;BME280;40825;52.270;20.984;2023-05-12T06:10:38;101401.59;;;15.24;40.47
54924;BME280;40825;52.270;20.984;2023-05-12T06:13:03;101403.35;;;15.43;40.20
54924;BME280;40825;52.270;20.984;2023-05-12T06:15:29;101404.59;;;15.57;39.38
54924;BME280;40825;52.270;20.984;2023-05-12T06:17:54;101403.31;;;15.68;39.17
54924;BME280;40825;52.270;20.984;2023-05-12T06:20:20;101406.23;;;15.85;38.86
54924;BME280;40825;52.270;20.984;2023-05-12T06:22:47;101404.27;;;16.06;38.65
54924;BME280;40825;52.270;20.984;2023-05-12T06:25:13;101407.10;;;16.25;38.28
54924;BME280;40825;52.270;20.984;2023-05-12T06:27:39;101409.55;;;16.35;37.96
54924;BME280;40825;52.270;20.984;2023-05-12T06:30:05;101402.60;;;16.47;38.41
54924;BME280;40825;52.270;20.984;2023-05-12T06:32:31;101402.77;;;16.61;37.83
54924;BME280;40825;52.270;20.984;2023-05-12T06:34:57;101401.29;;;16.65;37.63
54924;BME280;40825;52.270;20.984;2023-05-12T06:37:23;101408.39;;;16.69;37.21
54924;BME280;40825;52.270;20.984;2023-05-12T06:39:48;101408.79;;;16.64;36.98
54924;BME280;40825;52.270;20.984;2023-05-12T06:42:14;101406.69;;;16.72;37.35
54924;BME280;40825;52.270;20.984;2023-05-12T06:44:40;101404.36;;;16.93;37.82
54924;BME280;40825;52.270;20.984;2023-05-12T06:47:06;101407.35;;;17.16;37.81
54924;BME280;40825;52.270;20.984;2023-05-12T06:49:32;101409.84;;;17.36;37.89
54924;BME280;40825;52.270;20.984;2023-05-12T06:52:00;101408.23;;;17.36;36.57
54924;BME280;40825;52.270;20.984;2023-05-12T06:54:25;101407.10;;;17.39;36.67
54924;BME280;40825;52.270;20.984;2023-05-12T06:56:51;101406.83;;;17.52;36.61
54924;BME280;40825;52.270;20.984;2023-05-12T06:59:17;101409.67;;;17.72;37.36
54924;BME280;40825;52.270;20.984;2023-05-12T07:01:42;101405.58;;;17.89;36.79
54924;BME280;40825;52.270;20.984;2023-05-12T07:04:08;101412.90;;;17.97;35.36
54924;BME280;40825;52.270;20.984;2023-05-12T07:06:33;101408.67;;;18.06;35.67
54924;BME280;40825;52.270;20.984;2023-05-12T07:08:59;101407.70;;;18.17;35.17
54924;BME280;40825;52.270;20.984;2023-05-12T07:11:24;101411.74;;;18.23;35.09
54924;BME280;40825;52.270;20.984;2023-05-12T07:13:50;101404.44;;;18.32;35.01
54924;BME280;40825;52.270;20.984;2023-05-12T07:16:17;101414.16;;;18.48;35.15
54924;BME280;40825;52.270;20.984;2023-05-12T07:18:44;101411.67;;;18.63;34.86
54924;BME280;40825;52.270;20.984;2023-05-12T07:21:10;101410.28;;;18.80;34.44
54924;BME280;40825;52.270;20.984;2023-05-12T07:23:36;101411.73;;;19.11;34.00
54924;BME280;40825;52.270;20.984;2023-05-12T07:26:03;101411.23;;;19.48;33.69
54924;BME280;40825;52.270;20.984;2023-05-12T07:28:30;101406.77;;;20.02;33.09
54924;BME280;40825;52.270;20.984;2023-05-12T07:31:00;101408.94;;;20.22;32.28
54924;BME280;40825;52.270;20.984;2023-05-12T07:33:25;101408.11;;;20.30;32.49
54924;BME280;40825;52.270;20.984;2023-05-12T07:35:51;101408.23;;;20.35;31.69
54924;BME280;40825;52.270;20.984;2023-05-12T07:38:16;101408.63;;;20.40;31.52
54924;BME280;40825;52.270;20.984;2023-05-12T07:40:42;101409.28;;;20.60;32.10
54924;BME280;40825;52.270;20.984;2023-05-12T07:43:09;101403.95;;;20.73;31.05
54924;BME280;40825;52.270;20.984;2023-05-12T07:45:35;101404.86;;;20.63;30.22
54924;BME280;40825;52.270;20.984;2023-05-12T07:48:01;101406.13;;;20.50;29.78
54924;BME280;40825;52.270;20.984;2023-05-12T07:50:27;101412.14;;;20.50;29.65
54924;BME280;40825;52.270;20.984;2023-05-12T07:52:52;101419.23;;;20.36;29.41
54924;BME280;40825;52.270;20.984;2023-05-12T07:55:19;101416.45;;;20.15;29.65
54924;BME280;40825;52.270;20.984;2023-05-12T07:57:46;101416.71;;;20.06;29.94
54924;BME280;40825;52.270;20.984;2023-05-12T08:00:12;101417.73;;;19.97;29.60
54924;BME280;40825;52.270;20.984;2023-05-12T08:02:38;101412.77;;;19.74;29.79
54924;BME280;40825;52.270;20.984;2023-05-12T08:05:04;101421.33;;;19.72;30.16
54924;BME280;40825;52.270;20.984;2023-05-12T08:07:30;101424.72;;;19.63;29.53
54924;BME280;40825;52.270;20.984;2023-05-12T08:09:56;101425.52;;;19.50;30.05
54924;BME280;40825;52.270;20.984;2023-05-12T08:12:22;101418.23;;;19.62;30.12
54924;BME280;40825;52.270;20.984;2023-05-12T08:14:47;101415.69;;;19.62;29.73
54924;BME280;40825;52.270;20.984;2023-05-12T08:17:15;101418.66;;;19.54;28.45
54924;BME280;40825;52.270;20.984;2023-05-12T08:19:40;101412.59;;;19.49;28.65
54924;BME280;40825;52.270;20.984;2023-05-12T08:22:06;101422.92;;;19.48;29.12
54924;BME280;40825;52.270;20.984;2023-05-12T08:24:31;101421.73;;;19.54;28.81
54924;BME280;40825;52.270;20.984;2023-05-12T08:26:57;101411.38;;;19.63;28.38
54924;BME280;40825;52.270;20.984;2023-05-12T08:29:22;101416.66;;;20.15;28.69
54924;BME280;40825;52.270;20.984;2023-05-12T08:31:48;101418.17;;;20.35;27.23
54924;BME280;40825;52.270;20.984;2023-05-12T08:34:13;101416.04;;;20.88;27.10
54924;BME280;40825;52.270;20.984;2023-05-12T08:36:39;101405.47;;;21.24;25.86
54924;BME280;40825;52.270;20.984;2023-05-12T08:39:06;101411.34;;;21.58;25.80
54924;BME280;40825;52.270;20.984;2023-05-12T08:41:51;101416.95;;;21.40;25.10
54924;BME280;40825;52.270;20.984;2023-05-12T08:44:18;101419.64;;;21.37;25.01
54924;BME280;40825;52.270;20.984;2023-05-12T08:46:45;101419.52;;;21.59;25.02
54924;BME280;40825;52.270;20.984;2023-05-12T08:49:16;101416.40;;;22.08;24.55
54924;BME280;40825;52.270;20.984;2023-05-12T08:51:45;101417.42;;;22.44;24.40
54924;BME280;40825;52.270;20.984;2023-05-12T08:54:12;101421.24;;;22.33;24.12
54924;BME280;40825;52.270;20.984;2023-05-12T08:56:41;101419.20;;;22.12;23.94
54924;BME280;40825;52.270;20.984;2023-05-12T08:59:09;101411.63;;;22.42;24.54
54924;BME280;40825;52.270;20.984;2023-05-12T09:01:35;101406.30;;;22.72;24.36
54924;BME280;40825;52.270;20.984;2023-05-12T09:04:03;101409.55;;;22.82;24.18
54924;BME280;40825;52.270;20.984;2023-05-12T09:06:28;101419.21;;;22.94;23.53
54924;BME280;40825;52.270;20.984;2023-05-12T09:08:55;101414.52;;;23.00;23.45
54924;BME280;40825;52.270;20.984;2023-05-12T09:11:21;101414.19;;;23.13;22.88
54924;BME280;40825;52.270;20.984;2023-05-12T09:13:59;101407.23;;;23.29;22.93
54924;BME280;40825;52.270;20.984;2023-05-12T09:16:28;101407.08;;;23.14;22.34
54924;BME280;40825;52.270;20.984;2023-05-12T09:18:56;101401.34;;;23.33;22.98
54924;BME280;40825;52.270;20.984;2023-05-12T09:21:22;101413.20;;;23.48;22.38
54924;BME280;40825;52.270;20.984;2023-05-12T09:23:56;101409.81;;;23.31;22.04
54924;BME280;40825;52.270;20.984;2023-05-12T09:26:23;101410.34;;;23.10;22.27
54924;BME280;40825;52.270;20.984;2023-05-12T09:28:49;101402.73;;;22.91;22.48
54924;BME280;40825;52.270;20.984;2023-05-12T09:31:20;101406.61;;;23.33;22.90
54924;BME280;40825;52.270;20.984;2023-05-12T09:33:46;101404.11;;;23.36;22.47
54924;BME280;40825;52.270;20.984;2023-05-12T09:36:23;101408.30;;;23.23;22.12
54924;BME280;40825;52.270;20.984;2023-05-12T09:39:05;101395.55;;;23.24;22.04
54924;BME280;40825;52.270;20.984;2023-05-12T09:41:39;101401.56;;;23.18;22.11
54924;BME280;40825;52.270;20.984;2023-05-12T09:44:06;101395.65;;;23.31;22.20
54924;BME280;40825;52.270;20.984;2023-05-12T09:46:33;101394.63;;;23.36;22.19
54924;BME280;40825;52.270;20.984;2023-05-12T09:48:59;101396.72;;;23.46;22.44
54924;BME280;40825;52.270;20.984;2023-05-12T09:51:26;101401.42;;;23.31;22.24
54924;BME280;40825;52.270;20.984;2023-05-12T09:53:52;101404.33;;;23.28;22.44
54924;BME280;40825;52.270;20.984;2023-05-12T09:56:18;101401.97;;;23.36;22.01
54924;BME280;40825;52.270;20.984;2023-05-12T09:58:45;101393.27;;;23.24;22.09
54924;BME280;40825;52.270;20.984;2023-05-12T10:01:13;101395.58;;;23.29;22.15
54924;BME280;40825;52.270;20.984;2023-05-12T10:03:44;101394.15;;;23.29;22.03
54924;BME280;40825;52.270;20.984;2023-05-12T10:06:20;101399.58;;;23.35;22.03
54924;BME280;40825;52.270;20.984;2023-05-12T10:11:25;101394.06;;;22.99;22.00
54924;BME280;40825;52.270;20.984;2023-05-12T10:13:51;101389.10;;;23.02;22.13
54924;BME280;40825;52.270;20.984;2023-05-12T10:16:17;101392.68;;;23.05;22.19
54924;BME280;40825;52.270;20.984;2023-05-12T10:18:44;101389.88;;;23.15;22.35
54924;BME280;40825;52.270;20.984;2023-05-12T10:21:11;101388.44;;;23.01;22.60
54924;BME280;40825;52.270;20.984;2023-05-12T10:23:39;101387.98;;;22.88;22.54
54924;BME280;40825;52.270;20.984;2023-05-12T10:26:06;101389.52;;;22.98;22.59
54924;BME280;40825;52.270;20.984;2023-05-12T10:28:33;101389.40;;;22.86;22.27
54924;BME280;40825;52.270;20.984;2023-05-12T10:30:59;101384.77;;;22.73;22.65
54924;BME280;40825;52.270;20.984;2023-05-12T10:33:24;101385.95;;;22.80;23.06
54924;BME280;40825;52.270;20.984;2023-05-12T10:35:51;101379.39;;;22.85;22.63
54924;BME280;40825;52.270;20.984;2023-05-12T10:38:17;101382.89;;;22.68;22.79
54924;BME280;40825;52.270;20.984;2023-05-12T10:40:58;101382.98;;;22.32;23.04
54924;BME280;40825;52.270;20.984;2023-05-12T10:43:38;101373.48;;;22.29;23.71
54924;BME280;40825;52.270;20.984;2023-05-12T10:46:24;101369.63;;;22.41;23.66
54924;BME280;40825;52.270;20.984;2023-05-12T10:48:57;101381.06;;;22.50;23.41
54924;BME280;40825;52.270;20.984;2023-05-12T10:51:26;101379.86;;;22.38;23.11
54924;BME280;40825;52.270;20.984;2023-05-12T10:53:55;101377.16;;;22.19;23.14
54924;BME280;40825;52.270;20.984;2023-05-12T10:56:48;101375.86;;;22.18;23.88
54924;BME280;40825;52.270;20.984;2023-05-12T11:02:13;101372.31;;;21.88;23.77
54924;BME280;40825;52.270;20.984;2023-05-12T11:07:09;101365.39;;;21.32;24.14
54924;BME280;40825;52.270;20.984;2023-05-12T11:09:36;101364.20;;;21.43;24.45
54924;BME280;40825;52.270;20.984;2023-05-12T11:12:05;101361.04;;;21.49;24.35
54924;BME280;40825;52.270;20.984;2023-05-12T11:14:33;101363.23;;;21.59;24.63
54924;BME280;40825;52.270;20.984;2023-05-12T11:16:59;101361.96;;;21.62;24.42
54924;BME280;40825;52.270;20.984;2023-05-12T11:19:25;101368.79;;;21.66;24.62
54924;BME280;40825;52.270;20.984;2023-05-12T11:21:50;101373.18;;;21.55;24.14
54924;BME280;40825;52.270;20.984;2023-05-12T11:24:16;101360.17;;;21.46;24.42
54924;BME280;40825;52.270;20.984;2023-05-12T11:26:42;101359.25;;;21.38;24.75
54924;BME280;40825;52.270;20.984;2023-05-12T11:29:07;101360.02;;;21.30;24.25
54924;BME280;40825;52.270;20.984;2023-05-12T11:31:34;101361.16;;;21.27;24.43
54924;BME280;40825;52.270;20.984;2023-05-12T11:34:04;101354.65;;;21.44;24.78
54924;BME280;40825;52.270;20.984;2023-05-12T11:36:38;101352.72;;;21.51;24.49
54924;BME280;40825;52.270;20.984;2023-05-12T11:39:04;101359.52;;;21.37;24.66
54924;BME280;40825;52.270;20.984;2023-05-12T11:41:31;101361.20;;;21.38;25.09
54924;BME280;40825;52.270;20.984;2023-05-12T11:43:57;101353.60;;;21.35;24.59
54924;BME280;40825;52.270;20.984;2023-05-12T11:46:29;101348.97;;;21.31;24.92
54924;BME280;40825;52.270;20.984;2023-05-12T11:48:56;101351.52;;;21.29;24.72
54924;BME280;40825;52.270;20.984;2023-05-12T11:51:22;101355.88;;;21.30;24.58
54924;BME280;40825;52.270;20.984;2023-05-12T11:53:47;101360.53;;;21.34;24.28
54924;BME280;40825;52.270;20.984;2023-05-12T11:56:20;101359.17;;;21.29;24.54
54924;BME280;40825;52.270;20.984;2023-05-12T11:58:56;101352.66;;;21.05;24.52
54924;BME280;40825;52.270;20.984;2023-05-12T12:01:23;101346.19;;;21.00;24.42
54924;BME280;40825;52.270;20.984;2023-05-12T12:03:51;101357.77;;;21.08;24.64
54924;BME280;40825;52.270;20.984;2023-05-12T12:06:18;101347.77;;;21.03;24.54
54924;BME280;40825;52.270;20.984;2023-05-12T12:08:55;101349.83;;;21.00;24.83
54924;BME280;40825;52.270;20.984;2023-05-12T12:11:22;101354.70;;;20.89;24.51
54924;BME280;40825;52.270;20.984;2023-05-12T12:13:52;101357.98;;;20.86;24.75
54924;BME280;40825;52.270;20.984;2023-05-12T12:16:26;101348.52;;;20.81;25.49
54924;BME280;40825;52.270;20.984;2023-05-12T12:18:52;101344.48;;;20.81;24.90
54924;BME280;40825;52.270;20.984;2023-05-12T12:21:18;101340.69;;;20.73;24.45
54924;BME280;40825;52.270;20.984;2023-05-12T12:23:45;101341.84;;;20.62;24.73
54924;BME280;40825;52.270;20.984;2023-05-12T12:26:10;101352.09;;;20.45;24.39
54924;BME280;40825;52.270;20.984;2023-05-12T12:28:36;101357.02;;;20.34;24.47
54924;BME280;40825;52.270;20.984;2023-05-12T12:31:01;101350.34;;;20.35;24.40
54924;BME280;40825;52.270;20.984;2023-05-12T12:33:27;101337.02;;;20.46;24.48
54924;BME280;40825;52.270;20.984;2023-05-12T12:35:53;101338.51;;;20.61;24.88
54924;BME280;40825;52.270;20.984;2023-05-12T12:38:18;101348.93;;;20.76;25.42
54924;BME280;40825;52.270;20.984;2023-05-12T12:40:45;101340.99;;;20.84;25.48
54924;BME280;40825;52.270;20.984;2023-05-12T12:43:10;101337.52;;;20.82;25.30
54924;BME280;40825;52.270;20.984;2023-05-12T12:45:36;101335.33;;;20.69;25.20
54924;BME280;40825;52.270;20.984;2023-05-12T12:48:01;101342.61;;;20.60;25.11